sensor_id;sensor_type;location;lat;lon;timestamp;temperature;humidity
64032;DHT22;50278;47.796;11.968;2023-04-16T00:02:14;5.30;118.99
64032;DHT22;50278;47.796;11.968;2023-04-16T00:04:40;5.26;118.99
64032;DHT22;50278;47.796;11.968;2023-04-16T00:07:06;5.31;118.99
64032;DHT22;50278;47.796;11.968;2023-04-16T00:09:31;5.24;118.99
64032;DHT22;50278;47.796;11.968;2023-04-16T00:11:57;5.30;118.99
64032;DHT22;50278;47.796;11.968;2023-04-16T00:14:22;5.25;118.99
64032;DHT22;50278;47.796;11.968;2023-04-16T00:16:48;5.18;118.99
64032;DHT22;50278;47.796;11.968;2023-04-16T00:19:13;5.17;118.99
64032;DHT22;50278;47.796;11.968;2023-04-16T00:21:39;5.08;118.99
64032;DHT22;50278;47.796;11.968;2023-04-16T00:24:05;5.07;118.99
64032;DHT22;50278;47.796;11.968;2023-04-16T00:26:30;5.07;118.99
64032;DHT22;50278;47.796;11.968;2023-04-16T00:28:55;5.04;118.99
64032;DHT22;50278;47.796;11.968;2023-04-16T00:31:29;5.04;118.99
64032;DHT22;50278;47.796;11.968;2023-04-16T00:33:56;5.07;118.99
64032;DHT22;50278;47.796;11.968;2023-04-16T00:36:22;5.08;118.99
64032;DHT22;50278;47.796;11.968;2023-04-16T00:38:48;5.08;118.99
64032;DHT22;50278;47.796;11.968;2023-04-16T00:41:14;5.00;118.99
64032;DHT22;50278;47.796;11.968;2023-04-16T00:43:40;5.04;118.99
64032;DHT22;50278;47.796;11.968;2023-04-16T00:46:07;5.04;118.99
64032;DHT22;50278;47.796;11.968;2023-04-16T00:48:38;5.00;118.99
64032;DHT22;50278;47.796;11.968;2023-04-16T00:51:04;5.03;118.99
64032;DHT22;50278;47.796;11.968;2023-04-16T00:53:30;5.04;118.99
64032;DHT22;50278;47.796;11.968;2023-04-16T00:55:56;5.07;118.99
64032;DHT22;50278;47.796;11.968;2023-04-16T00:58:22;5.00;118.99
64032;DHT22;50278;47.796;11.968;2023-04-16T01:00:50;4.97;118.99
64032;DHT22;50278;47.796;11.968;2023-04-16T01:03:15;5.00;118.99
64032;DHT22;50278;47.796;11.968;2023-04-16T01:05:41;4.97;118.99
64032;DHT22;50278;47.796;11.968;2023-04-16T01:08:17;5.00;118.99
64032;DHT22;50278;47.796;11.968;2023-04-16T01:10:44;5.00;118.99
64032;DHT22;50278;47.796;11.968;2023-04-16T01:13:09;4.93;118.99
64032;DHT22;50278;47.796;11.968;2023-04-16T01:15:35;4.98;118.99
64032;DHT22;50278;47.796;11.968;2023-04-16T01:18:01;4.93;118.99
64032;DHT22;50278;47.796;11.968;2023-04-16T01:20:28;5.06;118.99
64032;DHT22;50278;47.796;11.968;2023-04-16T01:22:54;4.97;118.99
64032;DHT22;50278;47.796;11.968;2023-04-16T01:25:19;5.00;118.99
64032;DHT22;50278;47.796;11.968;2023-04-16T01:27:48;4.97;118.99
64032;DHT22;50278;47.796;11.968;2023-04-16T01:30:15;5.04;118.99
64032;DHT22;50278;47.796;11.968;2023-04-16T01:32:54;5.02;118.99
64032;DHT22;50278;47.796;11.968;2023-04-16T01:35:19;4.96;118.99
64032;DHT22;50278;47.796;11.968;2023-04-16T01:37:45;5.02;118.99
64032;DHT22;50278;47.796;11.968;2023-04-16T01:40:11;4.97;118.99
64032;DHT22;50278;47.796;11.968;2023-04-16T01:42:37;4.95;118.99
64032;DHT22;50278;47.796;11.968;2023-04-16T01:45:03;4.97;118.99
64032;DHT22;50278;47.796;11.968;2023-04-16T01:47:29;5.01;118.99
64032;DHT22;50278;47.796;11.968;2023-04-16T01:49:54;5.00;118.99
64032;DHT22;50278;47.796;11.968;2023-04-16T01:52:20;5.01;118.99
64032;DHT22;50278;47.796;11.968;2023-04-16T01:54:46;5.07;118.99
64032;DHT22;50278;47.796;11.968;2023-04-16T01:57:11;5.01;118.99
64032;DHT22;50278;47.796;11.968;2023-04-16T01:59:37;5.00;118.99
64032;DHT22;50278;47.796;11.968;2023-04-16T02:02:07;5.02;118.99
64032;DHT22;50278;47.796;11.968;2023-04-16T02:04:33;5.06;118.99
64032;DHT22;50278;47.796;11.968;2023-04-16T02:06:58;5.11;118.99
64032;DHT22;50278;47.796;11.968;2023-04-16T02:09:24;5.07;118.99
64032;DHT22;50278;47.796;11.968;2023-04-16T02:11:49;5.09;118.99
64032;DHT22;50278;47.796;11.968;2023-04-16T02:14:15;5.08;118.99
64032;DHT22;50278;47.796;11.968;2023-04-16T02:16:41;5.11;118.99
64032;DHT22;50278;47.796;11.968;2023-04-16T02:19:27;5.08;118.99
64032;DHT22;50278;47.796;11.968;2023-04-16T02:21:53;5.05;118.99
64032;DHT22;50278;47.796;11.968;2023-04-16T02:24:20;5.03;118.99
64032;DHT22;50278;47.796;11.968;2023-04-16T02:26:46;5.07;118.99
64032;DHT22;50278;47.796;11.968;2023-04-16T02:29:15;5.07;118.99
64032;DHT22;50278;47.796;11.968;2023-04-16T02:31:45;5.08;118.99
64032;DHT22;50278;47.796;11.968;2023-04-16T02:34:12;5.17;118.99
64032;DHT22;50278;47.796;11.968;2023-04-16T02:36:39;5.10;118.99
64032;DHT22;50278;47.796;11.968;2023-04-16T02:39:05;5.12;118.99
64032;DHT22;50278;47.796;11.968;2023-04-16T02:41:31;5.21;118.99
64032;DHT22;50278;47.796;11.968;2023-04-16T02:43:56;5.16;118.99
64032;DHT22;50278;47.796;11.968;2023-04-16T02:46:22;5.22;118.99
64032;DHT22;50278;47.796;11.968;2023-04-16T02:48:48;5.16;118.99
64032;DHT22;50278;47.796;11.968;2023-04-16T02:51:14;5.20;118.99
64032;DHT22;50278;47.796;11.968;2023-04-16T02:53:39;5.19;118.99
64032;DHT22;50278;47.796;11.968;2023-04-16T02:56:06;5.23;118.99
64032;DHT22;50278;47.796;11.968;2023-04-16T02:58:31;5.19;118.99
64032;DHT22;50278;47.796;11.968;2023-04-16T03:00:57;5.25;118.99
64032;DHT22;50278;47.796;11.968;2023-04-16T03:03:23;5.22;118.99
64032;DHT22;50278;47.796;11.968;2023-04-16T03:05:48;5.24;118.99
64032;DHT22;50278;47.796;11.968;2023-04-16T03:08:15;5.18;118.99
64032;DHT22;50278;47.796;11.968;2023-04-16T03:10:40;5.17;118.99
64032;DHT22;50278;47.796;11.968;2023-04-16T03:13:06;5.18;118.99
64032;DHT22;50278;47.796;11.968;2023-04-16T03:15:32;5.21;118.99
64032;DHT22;50278;47.796;11.968;2023-04-16T03:17:57;5.17;118.99
64032;DHT22;50278;47.796;11.968;2023-04-16T03:20:23;5.17;118.99
64032;DHT22;50278;47.796;11.968;2023-04-16T03:22:49;5.16;118.99
64032;DHT22;50278;47.796;11.968;2023-04-16T03:25:17;5.16;118.99
64032;DHT22;50278;47.796;11.968;2023-04-16T03:27:43;5.19;118.99
64032;DHT22;50278;47.796;11.968;2023-04-16T03:30:11;5.20;118.99
64032;DHT22;50278;47.796;11.968;2023-04-16T03:32:37;5.16;118.99
64032;DHT22;50278;47.796;11.968;2023-04-16T03:35:04;5.15;118.99
64032;DHT22;50278;47.796;11.968;2023-04-16T03:37:30;5.11;118.99
64032;DHT22;50278;47.796;11.968;2023-04-16T03:39:56;5.20;118.99
64032;DHT22;50278;47.796;11.968;2023-04-16T03:42:22;5.16;118.99
64032;DHT22;50278;47.796;11.968;2023-04-16T03:44:47;5.19;118.99
64032;DHT22;50278;47.796;11.968;2023-04-16T03:47:14;5.16;118.99
64032;DHT22;50278;47.796;11.968;2023-04-16T03:49:40;5.23;118.99
64032;DHT22;50278;47.796;11.968;2023-04-16T03:52:06;5.20;118.99
64032;DHT22;50278;47.796;11.968;2023-04-16T03:54:31;5.18;118.99
64032;DHT22;50278;47.796;11.968;2023-04-16T03:57:08;5.18;118.99
64032;DHT22;50278;47.796;11.968;2023-04-16T03:59:33;5.16;118.99
64032;DHT22;50278;47.796;11.968;2023-04-16T04:01:59;5.23;118.99
64032;DHT22;50278;47.796;11.968;2023-04-16T04:04:25;5.17;118.99
64032;DHT22;50278;47.796;11.968;2023-04-16T04:06:50;5.20;118.99
64032;DHT22;50278;47.796;11.968;2023-04-16T04:09:16;5.10;118.99
64032;DHT22;50278;47.796;11.968;2023-04-16T04:11:42;5.12;118.99
64032;DHT22;50278;47.796;11.968;2023-04-16T04:14:07;5.10;118.99
64032;DHT22;50278;47.796;11.968;2023-04-16T04:16:33;5.10;118.99
64032;DHT22;50278;47.796;11.968;2023-04-16T04:18:59;5.10;118.99
64032;DHT22;50278;47.796;11.968;2023-04-16T04:21:26;5.05;118.99
64032;DHT22;50278;47.796;11.968;2023-04-16T04:23:52;5.04;118.99
64032;DHT22;50278;47.796;11.968;2023-04-16T04:26:18;5.15;118.99
64032;DHT22;50278;47.796;11.968;2023-04-16T04:28:44;5.11;118.99
64032;DHT22;50278;47.796;11.968;2023-04-16T04:31:09;5.05;118.99
64032;DHT22;50278;47.796;11.968;2023-04-16T04:33:35;5.06;118.99
64032;DHT22;50278;47.796;11.968;2023-04-16T04:36:01;5.05;118.99
64032;DHT22;50278;47.796;11.968;2023-04-16T04:38:27;5.08;118.99
64032;DHT22;50278;47.796;11.968;2023-04-16T04:40:53;5.11;118.99
64032;DHT22;50278;47.796;11.968;2023-04-16T04:43:20;5.10;118.99
64032;DHT22;50278;47.796;11.968;2023-04-16T04:45:45;5.12;118.99
64032;DHT22;50278;47.796;11.968;2023-04-16T04:48:12;5.12;118.99
64032;DHT22;50278;47.796;11.968;2023-04-16T04:50:37;5.19;118.99
64032;DHT22;50278;47.796;11.968;2023-04-16T04:53:04;5.20;118.99
64032;DHT22;50278;47.796;11.968;2023-04-16T04:55:40;5.18;118.99
64032;DHT22;50278;47.796;11.968;2023-04-16T04:58:06;5.22;118.99
64032;DHT22;50278;47.796;11.968;2023-04-16T05:00:35;5.18;118.99
64032;DHT22;50278;47.796;11.968;2023-04-16T05:03:04;5.20;118.99
64032;DHT22;50278;47.796;11.968;2023-04-16T05:05:29;5.26;118.99
64032;DHT22;50278;47.796;11.968;2023-04-16T05:07:55;5.31;118.99
64032;DHT22;50278;47.796;11.968;2023-04-16T05:10:20;5.28;118.99
64032;DHT22;50278;47.796;11.968;2023-04-16T05:12:46;5.30;118.99
64032;DHT22;50278;47.796;11.968;2023-04-16T05:15:15;5.36;118.99
64032;DHT22;50278;47.796;11.968;2023-04-16T05:17:41;5.31;118.99
64032;DHT22;50278;47.796;11.968;2023-04-16T05:20:09;5.38;118.99
64032;DHT22;50278;47.796;11.968;2023-04-16T05:22:35;5.48;118.99
64032;DHT22;50278;47.796;11.968;2023-04-16T05:25:01;5.45;118.99
64032;DHT22;50278;47.796;11.968;2023-04-16T05:27:26;5.43;118.99
64032;DHT22;50278;47.796;11.968;2023-04-16T05:29:52;5.41;118.99
64032;DHT22;50278;47.796;11.968;2023-04-16T05:32:17;5.45;118.99
64032;DHT22;50278;47.796;11.968;2023-04-16T05:34:43;5.45;118.99
64032;DHT22;50278;47.796;11.968;2023-04-16T05:37:08;5.50;118.99
64032;DHT22;50278;47.796;11.968;2023-04-16T05:39:34;5.43;118.99
64032;DHT22;50278;47.796;11.968;2023-04-16T05:41:59;5.52;118.99
64032;DHT22;50278;47.796;11.968;2023-04-16T05:44:25;5.49;118.99
64032;DHT22;50278;47.796;11.968;2023-04-16T05:46:50;5.53;118.99
64032;DHT22;50278;47.796;11.968;2023-04-16T05:49:16;5.47;118.99
64032;DHT22;50278;47.796;11.968;2023-04-16T05:51:43;5.51;118.99
64032;DHT22;50278;47.796;11.968;2023-04-16T05:54:08;5.60;118.99
64032;DHT22;50278;47.796;11.968;2023-04-16T05:56:34;5.55;118.99
64032;DHT22;50278;47.796;11.968;2023-04-16T05:58:59;5.53;118.99
64032;DHT22;50278;47.796;11.968;2023-04-16T06:01:25;5.53;118.99
64032;DHT22;50278;47.796;11.968;2023-04-16T06:03:50;5.54;118.99
64032;DHT22;50278;47.796;11.968;2023-04-16T06:06:16;5.59;118.99
64032;DHT22;50278;47.796;11.968;2023-04-16T06:08:41;5.59;118.99
64032;DHT22;50278;47.796;11.968;2023-04-16T06:11:07;5.60;118.99
64032;DHT22;50278;47.796;11.968;2023-04-16T06:13:32;5.69;118.99
64032;DHT22;50278;47.796;11.968;2023-04-16T06:15:58;5.62;118.99
64032;DHT22;50278;47.796;11.968;2023-04-16T06:18:23;5.63;118.99
64032;DHT22;50278;47.796;11.968;2023-04-16T06:20:49;5.77;118.99
64032;DHT22;50278;47.796;11.968;2023-04-16T06:23:15;5.78;118.99
64032;DHT22;50278;47.796;11.968;2023-04-16T06:25:40;5.82;118.99
64032;DHT22;50278;47.796;11.968;2023-04-16T06:28:06;5.84;118.99
64032;DHT22;50278;47.796;11.968;2023-04-16T06:30:31;5.97;118.99
64032;DHT22;50278;47.796;11.968;2023-04-16T06:32:57;5.95;118.99
64032;DHT22;50278;47.796;11.968;2023-04-16T06:35:23;6.02;118.99
64032;DHT22;50278;47.796;11.968;2023-04-16T06:37:48;6.05;118.99
64032;DHT22;50278;47.796;11.968;2023-04-16T06:40:14;6.07;118.99
64032;DHT22;50278;47.796;11.968;2023-04-16T06:42:41;6.19;118.99
64032;DHT22;50278;47.796;11.968;2023-04-16T06:45:07;6.12;118.99
64032;DHT22;50278;47.796;11.968;2023-04-16T06:47:33;6.20;118.99
64032;DHT22;50278;47.796;11.968;2023-04-16T06:49:58;6.19;118.99
64032;DHT22;50278;47.796;11.968;2023-04-16T06:52:24;6.27;118.99
64032;DHT22;50278;47.796;11.968;2023-04-16T06:54:49;6.40;118.99
64032;DHT22;50278;47.796;11.968;2023-04-16T06:57:15;6.45;118.99
64032;DHT22;50278;47.796;11.968;2023-04-16T06:59:40;6.41;118.99
64032;DHT22;50278;47.796;11.968;2023-04-16T07:02:08;6.34;118.99
64032;DHT22;50278;47.796;11.968;2023-04-16T07:04:34;6.45;118.99
64032;DHT22;50278;47.796;11.968;2023-04-16T07:07:00;6.40;118.99
64032;DHT22;50278;47.796;11.968;2023-04-16T07:09:25;6.48;118.99
64032;DHT22;50278;47.796;11.968;2023-04-16T07:11:52;6.40;118.99
64032;DHT22;50278;47.796;11.968;2023-04-16T07:14:17;6.36;118.99
64032;DHT22;50278;47.796;11.968;2023-04-16T07:16:43;6.44;118.99
64032;DHT22;50278;47.796;11.968;2023-04-16T07:19:08;6.54;118.99
64032;DHT22;50278;47.796;11.968;2023-04-16T07:21:34;6.60;118.99
64032;DHT22;50278;47.796;11.968;2023-04-16T07:24:00;6.66;118.99
64032;DHT22;50278;47.796;11.968;2023-04-16T07:26:25;6.55;118.99
64032;DHT22;50278;47.796;11.968;2023-04-16T07:28:51;6.67;118.99
64032;DHT22;50278;47.796;11.968;2023-04-16T07:31:16;6.73;118.99
64032;DHT22;50278;47.796;11.968;2023-04-16T07:33:42;6.84;118.99
64032;DHT22;50278;47.796;11.968;2023-04-16T07:36:07;6.82;118.99
64032;DHT22;50278;47.796;11.968;2023-04-16T07:38:33;6.81;118.99
64032;DHT22;50278;47.796;11.968;2023-04-16T07:40:59;6.74;118.99
64032;DHT22;50278;47.796;11.968;2023-04-16T07:43:25;6.73;118.99
64032;DHT22;50278;47.796;11.968;2023-04-16T07:45:58;6.89;118.99
64032;DHT22;50278;47.796;11.968;2023-04-16T07:48:33;7.03;118.99
64032;DHT22;50278;47.796;11.968;2023-04-16T07:50:58;7.14;118.99
64032;DHT22;50278;47.796;11.968;2023-04-16T07:53:24;7.16;118.99
64032;DHT22;50278;47.796;11.968;2023-04-16T07:55:49;7.10;118.99
64032;DHT22;50278;47.796;11.968;2023-04-16T07:58:15;7.10;118.99
64032;DHT22;50278;47.796;11.968;2023-04-16T08:00:42;7.19;118.99
64032;DHT22;50278;47.796;11.968;2023-04-16T08:03:07;7.20;118.99
64032;DHT22;50278;47.796;11.968;2023-04-16T08:05:33;7.31;118.99
64032;DHT22;50278;47.796;11.968;2023-04-16T08:07:58;5.69;118.99
64032;DHT22;50278;47.796;11.968;2023-04-16T08:10:24;0.13;118.99
64032;DHT22;50278;47.796;11.968;2023-04-16T08:12:50;0.36;118.99
64032;DHT22;50278;47.796;11.968;2023-04-16T08:15:16;-0.89;118.99
64032;DHT22;50278;47.796;11.968;2023-04-16T08:17:41;-1.06;118.99
64032;DHT22;50278;47.796;11.968;2023-04-16T08:20:07;-0.91;118.99
64032;DHT22;50278;47.796;11.968;2023-04-16T08:22:32;-1.06;118.99
64032;DHT22;50278;47.796;11.968;2023-04-16T08:24:58;-1.05;118.99
64032;DHT22;50278;47.796;11.968;2023-04-16T08:27:33;-1.09;118.99
64032;DHT22;50278;47.796;11.968;2023-04-16T08:30:11;-0.90;118.99
64032;DHT22;50278;47.796;11.968;2023-04-16T08:32:37;-1.10;118.99
64032;DHT22;50278;47.796;11.968;2023-04-16T08:35:04;-1.08;118.99
64032;DHT22;50278;47.796;11.968;2023-04-16T08:37:29;-0.86;118.99
64032;DHT22;50278;47.796;11.968;2023-04-16T08:39:55;-1.00;118.99
64032;DHT22;50278;47.796;11.968;2023-04-16T08:42:28;-1.12;118.99
64032;DHT22;50278;47.796;11.968;2023-04-16T08:45:07;-0.88;118.99
64032;DHT22;50278;47.796;11.968;2023-04-16T08:47:34;-0.95;118.99
64032;DHT22;50278;47.796;11.968;2023-04-16T08:50:02;-0.79;118.99
64032;DHT22;50278;47.796;11.968;2023-04-16T08:52:29;-0.74;118.99
64032;DHT22;50278;47.796;11.968;2023-04-16T08:55:05;-0.82;118.99
64032;DHT22;50278;47.796;11.968;2023-04-16T08:57:38;-0.99;118.99
64032;DHT22;50278;47.796;11.968;2023-04-16T09:00:07;-1.06;118.99
64032;DHT22;50278;47.796;11.968;2023-04-16T09:02:34;-0.73;118.99
64032;DHT22;50278;47.796;11.968;2023-04-16T09:05:03;-0.67;118.99
64032;DHT22;50278;47.796;11.968;2023-04-16T09:07:31;-0.58;118.99
64032;DHT22;50278;47.796;11.968;2023-04-16T09:09:58;-0.74;118.99
64032;DHT22;50278;47.796;11.968;2023-04-16T09:12:24;-0.43;118.99
64032;DHT22;50278;47.796;11.968;2023-04-16T09:14:50;-0.23;118.99
64032;DHT22;50278;47.796;11.968;2023-04-16T09:17:17;-0.64;118.99
64032;DHT22;50278;47.796;11.968;2023-04-16T09:19:43;-0.68;118.99
64032;DHT22;50278;47.796;11.968;2023-04-16T09:22:08;-0.67;118.99
64032;DHT22;50278;47.796;11.968;2023-04-16T09:24:34;-0.27;118.99
64032;DHT22;50278;47.796;11.968;2023-04-16T09:26:59;-0.49;118.99
64032;DHT22;50278;47.796;11.968;2023-04-16T09:29:36;-0.05;118.99
64032;DHT22;50278;47.796;11.968;2023-04-16T09:32:03;-0.44;118.99
64032;DHT22;50278;47.796;11.968;2023-04-16T09:34:33;-0.51;118.99
64032;DHT22;50278;47.796;11.968;2023-04-16T09:37:15;-0.41;118.99
64032;DHT22;50278;47.796;11.968;2023-04-16T09:39:44;-0.43;118.99
64032;DHT22;50278;47.796;11.968;2023-04-16T09:42:10;-0.11;118.99
64032;DHT22;50278;47.796;11.968;2023-04-16T09:44:37;-0.10;118.99
64032;DHT22;50278;47.796;11.968;2023-04-16T09:47:07;-0.09;118.99
64032;DHT22;50278;47.796;11.968;2023-04-16T09:49:33;-0.46;118.99
64032;DHT22;50278;47.796;11.968;2023-04-16T09:52:00;0.22;118.99
64032;DHT22;50278;47.796;11.968;2023-04-16T09:54:26;-0.60;118.99
64032;DHT22;50278;47.796;11.968;2023-04-16T09:56:55;-0.36;118.99
64032;DHT22;50278;47.796;11.968;2023-04-16T09:59:22;-0.45;118.99
64032;DHT22;50278;47.796;11.968;2023-04-16T10:01:48;-0.36;118.99
64032;DHT22;50278;47.796;11.968;2023-04-16T10:04:15;-0.08;118.99
64032;DHT22;50278;47.796;11.968;2023-04-16T10:06:40;-0.13;118.99
64032;DHT22;50278;47.796;11.968;2023-04-16T10:09:07;-0.73;118.99
64032;DHT22;50278;47.796;11.968;2023-04-16T10:11:33;-0.66;118.99
64032;DHT22;50278;47.796;11.968;2023-04-16T10:13:59;-0.25;118.99
64032;DHT22;50278;47.796;11.968;2023-04-16T10:16:25;0.06;118.99
64032;DHT22;50278;47.796;11.968;2023-04-16T10:18:52;-0.34;118.99
64032;DHT22;50278;47.796;11.968;2023-04-16T10:21:18;0.54;118.99
64032;DHT22;50278;47.796;11.968;2023-04-16T10:23:44;0.53;118.99
64032;DHT22;50278;47.796;11.968;2023-04-16T10:26:09;0.45;118.99
64032;DHT22;50278;47.796;11.968;2023-04-16T10:28:35;-0.45;118.99
64032;DHT22;50278;47.796;11.968;2023-04-16T10:31:03;0.21;118.99
64032;DHT22;50278;47.796;11.968;2023-04-16T10:33:34;0.20;118.99
64032;DHT22;50278;47.796;11.968;2023-04-16T10:36:12;0.29;118.99
64032;DHT22;50278;47.796;11.968;2023-04-16T10:38:46;0.19;118.99
64032;DHT22;50278;47.796;11.968;2023-04-16T10:41:12;0.16;118.99
64032;DHT22;50278;47.796;11.968;2023-04-16T10:43:42;0.17;118.99
64032;DHT22;50278;47.796;11.968;2023-04-16T10:46:24;0.02;118.99
64032;DHT22;50278;47.796;11.968;2023-04-16T10:48:55;-0.06;118.99
64032;DHT22;50278;47.796;11.968;2023-04-16T10:51:32;0.64;118.99
64032;DHT22;50278;47.796;11.968;2023-04-16T10:54:19;-0.01;118.99
64032;DHT22;50278;47.796;11.968;2023-04-16T10:56:46;0.05;118.99
64032;DHT22;50278;47.796;11.968;2023-04-16T10:59:12;0.71;118.99
64032;DHT22;50278;47.796;11.968;2023-04-16T11:01:43;0.72;118.99
64032;DHT22;50278;47.796;11.968;2023-04-16T11:12:19;0.73;118.99
64032;DHT22;50278;47.796;11.968;2023-04-16T11:14:50;0.38;118.99
64032;DHT22;50278;47.796;11.968;2023-04-16T11:17:17;0.95;118.99
64032;DHT22;50278;47.796;11.968;2023-04-16T11:19:43;0.62;118.99
64032;DHT22;50278;47.796;11.968;2023-04-16T11:22:12;0.95;118.99
64032;DHT22;50278;47.796;11.968;2023-04-16T11:24:38;0.89;118.99
64032;DHT22;50278;47.796;11.968;2023-04-16T11:27:17;1.77;118.99
64032;DHT22;50278;47.796;11.968;2023-04-16T11:30:03;0.84;118.99
64032;DHT22;50278;47.796;11.968;2023-04-16T11:32:34;0.31;118.99
64032;DHT22;50278;47.796;11.968;2023-04-16T11:35:01;0.34;118.99
64032;DHT22;50278;47.796;11.968;2023-04-16T11:37:36;0.35;118.99
64032;DHT22;50278;47.796;11.968;2023-04-16T11:40:05;0.53;118.99
64032;DHT22;50278;47.796;11.968;2023-04-16T11:42:32;0.68;118.99
64032;DHT22;50278;47.796;11.968;2023-04-16T11:44:58;2.14;118.99
64032;DHT22;50278;47.796;11.968;2023-04-16T11:47:28;1.25;118.99
64032;DHT22;50278;47.796;11.968;2023-04-16T11:49:54;2.16;118.99
64032;DHT22;50278;47.796;11.968;2023-04-16T11:52:25;2.57;118.99
64032;DHT22;50278;47.796;11.968;2023-04-16T11:54:52;1.55;118.99
64032;DHT22;50278;47.796;11.968;2023-04-16T11:57:27;13.52;85.46
64032;DHT22;50278;47.796;11.968;2023-04-16T11:59:53;13.59;86.76
64032;DHT22;50278;47.796;11.968;2023-04-16T12:02:38;13.45;86.87
64032;DHT22;50278;47.796;11.968;2023-04-16T12:05:27;12.41;93.11
64032;DHT22;50278;47.796;11.968;2023-04-16T12:07:54;11.33;99.00
64032;DHT22;50278;47.796;11.968;2023-04-16T12:10:20;11.67;98.33
64032;DHT22;50278;47.796;11.968;2023-04-16T12:12:46;12.53;95.49
64032;DHT22;50278;47.796;11.968;2023-04-16T12:15:11;12.88;90.93
64032;DHT22;50278;47.796;11.968;2023-04-16T12:17:37;13.27;90.15
64032;DHT22;50278;47.796;11.968;2023-04-16T12:22:38;13.40;89.70
64032;DHT22;50278;47.796;11.968;2023-04-16T12:25:15;14.65;84.91
64032;DHT22;50278;47.796;11.968;2023-04-16T12:27:45;14.77;84.70
64032;DHT22;50278;47.796;11.968;2023-04-16T12:30:12;14.23;84.57
64032;DHT22;50278;47.796;11.968;2023-04-16T12:32:39;13.27;90.13
64032;DHT22;50278;47.796;11.968;2023-04-16T12:35:04;14.43;82.01
64032;DHT22;50278;47.796;11.968;2023-04-16T12:37:30;14.48;82.41
64032;DHT22;50278;47.796;11.968;2023-04-16T12:39:56;13.19;86.74
64032;DHT22;50278;47.796;11.968;2023-04-16T12:42:22;14.15;83.98
64032;DHT22;50278;47.796;11.968;2023-04-16T12:44:47;15.18;83.16
64032;DHT22;50278;47.796;11.968;2023-04-16T12:47:13;16.34;75.00
64032;DHT22;50278;47.796;11.968;2023-04-16T12:49:38;16.17;73.85
64032;DHT22;50278;47.796;11.968;2023-04-16T12:52:04;14.92;79.32
64032;DHT22;50278;47.796;11.968;2023-04-16T12:54:31;14.57;81.41
64032;DHT22;50278;47.796;11.968;2023-04-16T12:56:56;14.56;79.58
64032;DHT22;50278;47.796;11.968;2023-04-16T12:59:22;14.50;77.02
64032;DHT22;50278;47.796;11.968;2023-04-16T13:01:48;14.86;75.35
64032;DHT22;50278;47.796;11.968;2023-04-16T13:04:14;14.10;80.11
64032;DHT22;50278;47.796;11.968;2023-04-16T13:06:39;14.70;77.26
64032;DHT22;50278;47.796;11.968;2023-04-16T13:09:05;15.11;77.21
64032;DHT22;50278;47.796;11.968;2023-04-16T13:11:31;15.22;75.05
64032;DHT22;50278;47.796;11.968;2023-04-16T13:13:56;14.72;75.60
64032;DHT22;50278;47.796;11.968;2023-04-16T13:16:22;14.24;78.68
64032;DHT22;50278;47.796;11.968;2023-04-16T13:18:48;13.25;80.67
64032;DHT22;50278;47.796;11.968;2023-04-16T13:21:14;13.09;82.53
64032;DHT22;50278;47.796;11.968;2023-04-16T13:23:40;12.30;85.42
64032;DHT22;50278;47.796;11.968;2023-04-16T13:26:05;12.07;87.54
64032;DHT22;50278;47.796;11.968;2023-04-16T13:28:31;12.25;86.86
64032;DHT22;50278;47.796;11.968;2023-04-16T13:30:56;11.83;88.66
64032;DHT22;50278;47.796;11.968;2023-04-16T13:33:22;11.74;91.67
64032;DHT22;50278;47.796;11.968;2023-04-16T13:35:48;11.89;88.77
64032;DHT22;50278;47.796;11.968;2023-04-16T13:38:14;12.52;86.03
64032;DHT22;50278;47.796;11.968;2023-04-16T13:40:39;11.98;91.31
64032;DHT22;50278;47.796;11.968;2023-04-16T13:43:05;11.47;93.85
64032;DHT22;50278;47.796;11.968;2023-04-16T13:45:30;11.08;100.09
64032;DHT22;50278;47.796;11.968;2023-04-16T13:47:56;11.31;96.25
64032;DHT22;50278;47.796;11.968;2023-04-16T13:50:22;11.53;94.40
64032;DHT22;50278;47.796;11.968;2023-04-16T13:52:47;11.58;94.50
64032;DHT22;50278;47.796;11.968;2023-04-16T13:55:13;11.49;93.46
64032;DHT22;50278;47.796;11.968;2023-04-16T13:57:39;11.47;95.17
64032;DHT22;50278;47.796;11.968;2023-04-16T14:00:06;11.18;96.77
64032;DHT22;50278;47.796;11.968;2023-04-16T14:02:34;11.56;94.84
64032;DHT22;50278;47.796;11.968;2023-04-16T14:04:59;11.63;94.73
64032;DHT22;50278;47.796;11.968;2023-04-16T14:07:25;12.31;92.82
64032;DHT22;50278;47.796;11.968;2023-04-16T14:09:52;13.39;87.51
64032;DHT22;50278;47.796;11.968;2023-04-16T14:12:17;12.17;92.35
64032;DHT22;50278;47.796;11.968;2023-04-16T14:14:43;11.55;94.30
64032;DHT22;50278;47.796;11.968;2023-04-16T14:17:08;11.44;96.57
64032;DHT22;50278;47.796;11.968;2023-04-16T14:19:34;11.56;99.52
64032;DHT22;50278;47.796;11.968;2023-04-16T14:21:59;11.39;96.55
64032;DHT22;50278;47.796;11.968;2023-04-16T14:24:25;11.86;98.82
64032;DHT22;50278;47.796;11.968;2023-04-16T14:26:50;11.37;100.96
64032;DHT22;50278;47.796;11.968;2023-04-16T14:29:16;11.04;100.52
64032;DHT22;50278;47.796;11.968;2023-04-16T14:31:41;11.83;97.45
64032;DHT22;50278;47.796;11.968;2023-04-16T14:34:07;12.31;94.94
64032;DHT22;50278;47.796;11.968;2023-04-16T14:36:32;11.13;100.23
64032;DHT22;50278;47.796;11.968;2023-04-16T14:38:58;11.20;103.71
64032;DHT22;50278;47.796;11.968;2023-04-16T14:41:24;11.14;102.92
64032;DHT22;50278;47.796;11.968;2023-04-16T14:43:49;11.11;107.24
64032;DHT22;50278;47.796;11.968;2023-04-16T14:46:15;10.92;102.60
64032;DHT22;50278;47.796;11.968;2023-04-16T14:48:44;10.72;104.47
64032;DHT22;50278;47.796;11.968;2023-04-16T14:51:10;10.97;103.84
64032;DHT22;50278;47.796;11.968;2023-04-16T14:53:36;11.43;101.54
64032;DHT22;50278;47.796;11.968;2023-04-16T14:56:02;10.97;105.74
64032;DHT22;50278;47.796;11.968;2023-04-16T14:58:28;11.00;106.75
64032;DHT22;50278;47.796;11.968;2023-04-16T15:00:53;10.45;109.61
64032;DHT22;50278;47.796;11.968;2023-04-16T15:03:19;10.36;110.06
64032;DHT22;50278;47.796;11.968;2023-04-16T15:05:45;10.15;112.64
64032;DHT22;50278;47.796;11.968;2023-04-16T15:08:15;10.09;117.87
64032;DHT22;50278;47.796;11.968;2023-04-16T15:10:40;9.69;118.99
64032;DHT22;50278;47.796;11.968;2023-04-16T15:13:07;9.53;118.99
64032;DHT22;50278;47.796;11.968;2023-04-16T15:15:33;9.47;118.99
64032;DHT22;50278;47.796;11.968;2023-04-16T15:17:58;9.35;118.99
64032;DHT22;50278;47.796;11.968;2023-04-16T15:20:24;9.68;118.99
64032;DHT22;50278;47.796;11.968;2023-04-16T15:22:50;9.46;118.99